sensor_id;sensor_type;location;lat;lon;timestamp;P1;durP1;ratioP1;P2;durP2;ratioP2
70814;SDS011;58428;49.478;10.986;2023-02-21T00:00:04;6.50;;;2.17;;
70814;SDS011;58428;49.478;10.986;2023-02-21T00:02:48;6.72;;;2.58;;
70814;SDS011;58428;49.478;10.986;2023-02-21T00:05:32;6.18;;;2.45;;
70814;SDS011;58428;49.478;10.986;2023-02-21T00:08:16;9.27;;;2.70;;
70814;SDS011;58428;49.478;10.986;2023-02-21T00:11:01;5.53;;;2.05;;
70814;SDS011;58428;49.478;10.986;2023-02-21T00:13:46;7.50;;;2.63;;
70814;SDS011;58428;49.478;10.986;2023-02-21T00:16:30;8.98;;;2.53;;
70814;SDS011;58428;49.478;10.986;2023-02-21T00:19:16;6.35;;;2.38;;
70814;SDS011;58428;49.478;10.986;2023-02-21T00:22:00;5.93;;;2.50;;
70814;SDS011;58428;49.478;10.986;2023-02-21T00:24:45;7.43;;;2.45;;
70814;SDS011;58428;49.478;10.986;2023-02-21T00:27:29;6.25;;;2.38;;
70814;SDS011;58428;49.478;10.986;2023-02-21T00:30:13;7.65;;;2.60;;
70814;SDS011;58428;49.478;10.986;2023-02-21T00:32:57;7.65;;;2.60;;
70814;SDS011;58428;49.478;10.986;2023-02-21T00:35:41;6.07;;;2.33;;
70814;SDS011;58428;49.478;10.986;2023-02-21T00:38:25;6.32;;;2.50;;
70814;SDS011;58428;49.478;10.986;2023-02-21T00:41:09;8.43;;;2.55;;
70814;SDS011;58428;49.478;10.986;2023-02-21T00:43:53;8.23;;;2.47;;
70814;SDS011;58428;49.478;10.986;2023-02-21T00:46:37;6.65;;;2.35;;
70814;SDS011;58428;49.478;10.986;2023-02-21T00:49:21;7.13;;;2.65;;
70814;SDS011;58428;49.478;10.986;2023-02-21T00:52:05;6.70;;;2.65;;
70814;SDS011;58428;49.478;10.986;2023-02-21T00:54:50;6.25;;;2.40;;
70814;SDS011;58428;49.478;10.986;2023-02-21T00:57:35;5.43;;;2.15;;
70814;SDS011;58428;49.478;10.986;2023-02-21T01:00:20;6.45;;;2.47;;
70814;SDS011;58428;49.478;10.986;2023-02-21T01:03:07;7.95;;;2.60;;
70814;SDS011;58428;49.478;10.986;2023-02-21T01:05:53;6.93;;;2.35;;
70814;SDS011;58428;49.478;10.986;2023-02-21T01:08:44;10.98;;;2.90;;
70814;SDS011;58428;49.478;10.986;2023-02-21T01:11:28;7.85;;;2.55;;
70814;SDS011;58428;49.478;10.986;2023-02-21T01:14:15;7.07;;;2.58;;
70814;SDS011;58428;49.478;10.986;2023-02-21T01:16:59;7.65;;;2.75;;
70814;SDS011;58428;49.478;10.986;2023-02-21T01:19:45;7.57;;;3.03;;
70814;SDS011;58428;49.478;10.986;2023-02-21T01:22:30;8.35;;;2.92;;
70814;SDS011;58428;49.478;10.986;2023-02-21T01:25:17;6.82;;;2.90;;
70814;SDS011;58428;49.478;10.986;2023-02-21T01:30:46;7.00;;;2.40;;
70814;SDS011;58428;49.478;10.986;2023-02-21T01:33:40;7.45;;;3.33;;
70814;SDS011;58428;49.478;10.986;2023-02-21T01:36:24;5.30;;;2.72;;
70814;SDS011;58428;49.478;10.986;2023-02-21T01:39:09;9.93;;;2.60;;
70814;SDS011;58428;49.478;10.986;2023-02-21T01:41:55;7.00;;;2.58;;
70814;SDS011;58428;49.478;10.986;2023-02-21T01:44:40;8.50;;;2.60;;
70814;SDS011;58428;49.478;10.986;2023-02-21T01:47:27;7.90;;;2.95;;
70814;SDS011;58428;49.478;10.986;2023-02-21T01:50:19;6.35;;;2.50;;
70814;SDS011;58428;49.478;10.986;2023-02-21T01:53:12;6.78;;;2.42;;
70814;SDS011;58428;49.478;10.986;2023-02-21T01:55:59;7.13;;;2.53;;
70814;SDS011;58428;49.478;10.986;2023-02-21T01:58:44;6.97;;;2.67;;
70814;SDS011;58428;49.478;10.986;2023-02-21T02:01:50;7.38;;;2.53;;
70814;SDS011;58428;49.478;10.986;2023-02-21T02:04:35;7.47;;;2.80;;
70814;SDS011;58428;49.478;10.986;2023-02-21T02:07:20;8.02;;;3.00;;
70814;SDS011;58428;49.478;10.986;2023-02-21T02:10:04;6.53;;;2.50;;
70814;SDS011;58428;49.478;10.986;2023-02-21T02:12:58;7.75;;;2.88;;
70814;SDS011;58428;49.478;10.986;2023-02-21T02:21:32;7.55;;;2.70;;
70814;SDS011;58428;49.478;10.986;2023-02-21T02:27:39;5.22;;;2.50;;
70814;SDS011;58428;49.478;10.986;2023-02-21T02:33:33;7.25;;;2.80;;
70814;SDS011;58428;49.478;10.986;2023-02-21T02:35:58;8.00;;;2.92;;
70814;SDS011;58428;49.478;10.986;2023-02-21T02:38:51;5.93;;;2.60;;
70814;SDS011;58428;49.478;10.986;2023-02-21T02:41:15;7.78;;;2.60;;
70814;SDS011;58428;49.478;10.986;2023-02-21T02:43:50;8.48;;;2.80;;
70814;SDS011;58428;49.478;10.986;2023-02-21T02:46:23;8.43;;;2.90;;
70814;SDS011;58428;49.478;10.986;2023-02-21T02:51:44;7.95;;;2.70;;
70814;SDS011;58428;49.478;10.986;2023-02-21T02:54:10;5.20;;;2.50;;
70814;SDS011;58428;49.478;10.986;2023-02-21T02:56:36;8.98;;;2.80;;
70814;SDS011;58428;49.478;10.986;2023-02-21T02:59:10;5.45;;;2.67;;
70814;SDS011;58428;49.478;10.986;2023-02-21T03:10:44;5.53;;;2.47;;
70814;SDS011;58428;49.478;10.986;2023-02-21T03:16:15;6.82;;;2.50;;
70814;SDS011;58428;49.478;10.986;2023-02-21T03:18:49;6.55;;;2.75;;
70814;SDS011;58428;49.478;10.986;2023-02-21T03:21:23;5.75;;;2.58;;
70814;SDS011;58428;49.478;10.986;2023-02-21T03:23:53;7.78;;;2.70;;
70814;SDS011;58428;49.478;10.986;2023-02-21T03:26:22;5.38;;;2.60;;
70814;SDS011;58428;49.478;10.986;2023-02-21T03:28:51;6.22;;;2.85;;
70814;SDS011;58428;49.478;10.986;2023-02-21T03:31:22;7.97;;;3.03;;
70814;SDS011;58428;49.478;10.986;2023-02-21T03:33:50;8.95;;;3.33;;
70814;SDS011;58428;49.478;10.986;2023-02-21T03:36:16;7.13;;;2.92;;
70814;SDS011;58428;49.478;10.986;2023-02-21T03:38:43;8.23;;;3.10;;
70814;SDS011;58428;49.478;10.986;2023-02-21T03:41:09;8.98;;;3.00;;
70814;SDS011;58428;49.478;10.986;2023-02-21T03:43:36;7.68;;;2.97;;
70814;SDS011;58428;49.478;10.986;2023-02-21T03:46:01;7.32;;;2.90;;
70814;SDS011;58428;49.478;10.986;2023-02-21T03:48:26;7.63;;;3.05;;
70814;SDS011;58428;49.478;10.986;2023-02-21T03:50:52;10.63;;;3.58;;
70814;SDS011;58428;49.478;10.986;2023-02-21T03:53:17;7.63;;;2.60;;
70814;SDS011;58428;49.478;10.986;2023-02-21T03:55:44;8.93;;;2.97;;
70814;SDS011;58428;49.478;10.986;2023-02-21T03:58:09;7.65;;;2.90;;
70814;SDS011;58428;49.478;10.986;2023-02-21T04:00:36;7.40;;;2.92;;
70814;SDS011;58428;49.478;10.986;2023-02-21T04:03:02;7.88;;;2.70;;
70814;SDS011;58428;49.478;10.986;2023-02-21T04:05:27;8.23;;;3.08;;
70814;SDS011;58428;49.478;10.986;2023-02-21T04:07:52;8.60;;;3.22;;
70814;SDS011;58428;49.478;10.986;2023-02-21T04:10:18;7.30;;;2.92;;
70814;SDS011;58428;49.478;10.986;2023-02-21T04:12:43;7.03;;;3.00;;
70814;SDS011;58428;49.478;10.986;2023-02-21T04:15:09;5.13;;;2.50;;
70814;SDS011;58428;49.478;10.986;2023-02-21T04:17:35;7.25;;;2.78;;
70814;SDS011;58428;49.478;10.986;2023-02-21T04:20:01;7.40;;;2.95;;
70814;SDS011;58428;49.478;10.986;2023-02-21T04:22:27;9.07;;;3.17;;
70814;SDS011;58428;49.478;10.986;2023-02-21T04:24:54;6.05;;;2.75;;
70814;SDS011;58428;49.478;10.986;2023-02-21T04:27:20;6.38;;;2.83;;
70814;SDS011;58428;49.478;10.986;2023-02-21T04:29:46;6.68;;;2.78;;
70814;SDS011;58428;49.478;10.986;2023-02-21T04:32:11;6.00;;;2.60;;
70814;SDS011;58428;49.478;10.986;2023-02-21T04:34:38;8.13;;;3.03;;
70814;SDS011;58428;49.478;10.986;2023-02-21T04:37:04;7.82;;;3.53;;
70814;SDS011;58428;49.478;10.986;2023-02-21T04:39:30;8.82;;;2.85;;
70814;SDS011;58428;49.478;10.986;2023-02-21T04:41:55;9.18;;;3.25;;
70814;SDS011;58428;49.478;10.986;2023-02-21T04:44:21;8.25;;;3.15;;
70814;SDS011;58428;49.478;10.986;2023-02-21T04:46:46;8.82;;;3.78;;
70814;SDS011;58428;49.478;10.986;2023-02-21T04:49:12;6.93;;;3.35;;
70814;SDS011;58428;49.478;10.986;2023-02-21T04:51:39;8.80;;;3.45;;
70814;SDS011;58428;49.478;10.986;2023-02-21T04:54:06;12.18;;;3.58;;
70814;SDS011;58428;49.478;10.986;2023-02-21T04:56:32;8.38;;;3.20;;
70814;SDS011;58428;49.478;10.986;2023-02-21T04:58:59;9.40;;;3.38;;
70814;SDS011;58428;49.478;10.986;2023-02-21T05:01:28;10.65;;;3.20;;
70814;SDS011;58428;49.478;10.986;2023-02-21T05:03:55;6.65;;;2.95;;
70814;SDS011;58428;49.478;10.986;2023-02-21T05:06:21;6.88;;;3.25;;
70814;SDS011;58428;49.478;10.986;2023-02-21T05:08:48;9.77;;;3.47;;
70814;SDS011;58428;49.478;10.986;2023-02-21T05:11:15;9.35;;;3.10;;
70814;SDS011;58428;49.478;10.986;2023-02-21T05:13:43;7.55;;;3.08;;
70814;SDS011;58428;49.478;10.986;2023-02-21T05:16:09;9.23;;;3.22;;
70814;SDS011;58428;49.478;10.986;2023-02-21T05:18:35;7.53;;;3.35;;
70814;SDS011;58428;49.478;10.986;2023-02-21T05:21:02;8.55;;;3.13;;
70814;SDS011;58428;49.478;10.986;2023-02-21T05:23:29;8.25;;;3.30;;
70814;SDS011;58428;49.478;10.986;2023-02-21T05:26:00;7.20;;;3.22;;
70814;SDS011;58428;49.478;10.986;2023-02-21T05:28:30;8.70;;;3.20;;
70814;SDS011;58428;49.478;10.986;2023-02-21T05:30:58;7.00;;;3.40;;
70814;SDS011;58428;49.478;10.986;2023-02-21T05:33:23;7.13;;;3.30;;
70814;SDS011;58428;49.478;10.986;2023-02-21T05:35:50;9.80;;;3.40;;
70814;SDS011;58428;49.478;10.986;2023-02-21T05:38:19;7.78;;;3.15;;
70814;SDS011;58428;49.478;10.986;2023-02-21T05:40:48;8.02;;;3.55;;
70814;SDS011;58428;49.478;10.986;2023-02-21T05:43:13;9.07;;;3.50;;
70814;SDS011;58428;49.478;10.986;2023-02-21T05:45:39;9.73;;;3.75;;
70814;SDS011;58428;49.478;10.986;2023-02-21T05:48:05;11.02;;;3.80;;
70814;SDS011;58428;49.478;10.986;2023-02-21T05:50:32;9.43;;;3.97;;
70814;SDS011;58428;49.478;10.986;2023-02-21T05:52:58;11.35;;;4.00;;
70814;SDS011;58428;49.478;10.986;2023-02-21T05:55:24;10.40;;;4.40;;
70814;SDS011;58428;49.478;10.986;2023-02-21T05:57:50;9.15;;;4.00;;
70814;SDS011;58428;49.478;10.986;2023-02-21T06:00:20;8.45;;;4.07;;
70814;SDS011;58428;49.478;10.986;2023-02-21T06:02:51;7.93;;;3.90;;
70814;SDS011;58428;49.478;10.986;2023-02-21T06:05:18;9.68;;;4.30;;
70814;SDS011;58428;49.478;10.986;2023-02-21T06:07:44;10.25;;;4.43;;
70814;SDS011;58428;49.478;10.986;2023-02-21T06:12:41;9.98;;;3.97;;
70814;SDS011;58428;49.478;10.986;2023-02-21T06:15:07;8.88;;;3.78;;
70814;SDS011;58428;49.478;10.986;2023-02-21T06:17:36;10.00;;;3.88;;
70814;SDS011;58428;49.478;10.986;2023-02-21T06:20:05;10.05;;;3.92;;
70814;SDS011;58428;49.478;10.986;2023-02-21T06:22:33;8.55;;;3.83;;
70814;SDS011;58428;49.478;10.986;2023-02-21T06:24:59;8.40;;;4.10;;
70814;SDS011;58428;49.478;10.986;2023-02-21T06:27:24;8.38;;;3.88;;
70814;SDS011;58428;49.478;10.986;2023-02-21T06:29:50;9.52;;;4.05;;
70814;SDS011;58428;49.478;10.986;2023-02-21T06:32:16;9.82;;;4.13;;
70814;SDS011;58428;49.478;10.986;2023-02-21T06:34:42;9.50;;;4.20;;
70814;SDS011;58428;49.478;10.986;2023-02-21T06:37:08;10.82;;;4.28;;
70814;SDS011;58428;49.478;10.986;2023-02-21T06:39:34;10.35;;;4.30;;
70814;SDS011;58428;49.478;10.986;2023-02-21T06:42:00;10.38;;;4.00;;
70814;SDS011;58428;49.478;10.986;2023-02-21T06:44:28;9.15;;;3.78;;
70814;SDS011;58428;49.478;10.986;2023-02-21T06:46:53;9.48;;;4.07;;
70814;SDS011;58428;49.478;10.986;2023-02-21T06:49:19;8.35;;;3.90;;
70814;SDS011;58428;49.478;10.986;2023-02-21T06:51:46;10.93;;;4.07;;
70814;SDS011;58428;49.478;10.986;2023-02-21T06:54:12;9.90;;;4.40;;
70814;SDS011;58428;49.478;10.986;2023-02-21T06:56:37;9.60;;;4.03;;
70814;SDS011;58428;49.478;10.986;2023-02-21T06:59:03;10.23;;;4.43;;
70814;SDS011;58428;49.478;10.986;2023-02-21T07:01:32;10.07;;;4.30;;
70814;SDS011;58428;49.478;10.986;2023-02-21T07:03:58;10.10;;;4.50;;
70814;SDS011;58428;49.478;10.986;2023-02-21T07:06:24;9.82;;;3.97;;
70814;SDS011;58428;49.478;10.986;2023-02-21T07:08:49;10.98;;;4.43;;
70814;SDS011;58428;49.478;10.986;2023-02-21T07:11:15;9.93;;;4.22;;
70814;SDS011;58428;49.478;10.986;2023-02-21T07:13:46;8.52;;;4.00;;
70814;SDS011;58428;49.478;10.986;2023-02-21T07:16:19;10.90;;;4.68;;
70814;SDS011;58428;49.478;10.986;2023-02-21T07:18:45;10.00;;;4.20;;
70814;SDS011;58428;49.478;10.986;2023-02-21T07:21:12;10.48;;;4.63;;
70814;SDS011;58428;49.478;10.986;2023-02-21T07:23:43;9.90;;;4.97;;
70814;SDS011;58428;49.478;10.986;2023-02-21T07:26:11;9.30;;;4.20;;
70814;SDS011;58428;49.478;10.986;2023-02-21T07:28:38;8.73;;;4.50;;
70814;SDS011;58428;49.478;10.986;2023-02-21T07:31:04;11.18;;;4.65;;
70814;SDS011;58428;49.478;10.986;2023-02-21T07:33:32;10.63;;;4.97;;
70814;SDS011;58428;49.478;10.986;2023-02-21T07:35:58;9.40;;;4.70;;
70814;SDS011;58428;49.478;10.986;2023-02-21T07:38:25;11.07;;;4.40;;
70814;SDS011;58428;49.478;10.986;2023-02-21T07:40:55;9.15;;;4.53;;
70814;SDS011;58428;49.478;10.986;2023-02-21T07:43:23;9.98;;;4.32;;
70814;SDS011;58428;49.478;10.986;2023-02-21T07:45:50;13.25;;;4.75;;
70814;SDS011;58428;49.478;10.986;2023-02-21T07:48:16;11.65;;;4.60;;
70814;SDS011;58428;49.478;10.986;2023-02-21T07:50:42;10.82;;;4.60;;
70814;SDS011;58428;49.478;10.986;2023-02-21T07:53:08;8.63;;;4.15;;
70814;SDS011;58428;49.478;10.986;2023-02-21T07:55:34;8.73;;;4.60;;
70814;SDS011;58428;49.478;10.986;2023-02-21T07:58:00;9.63;;;4.68;;
70814;SDS011;58428;49.478;10.986;2023-02-21T08:00:26;11.77;;;5.10;;
70814;SDS011;58428;49.478;10.986;2023-02-21T08:02:51;9.50;;;4.63;;
70814;SDS011;58428;49.478;10.986;2023-02-21T08:05:17;10.95;;;4.93;;
70814;SDS011;58428;49.478;10.986;2023-02-21T08:07:43;9.68;;;4.57;;
70814;SDS011;58428;49.478;10.986;2023-02-21T08:10:09;10.98;;;4.50;;
70814;SDS011;58428;49.478;10.986;2023-02-21T08:12:41;10.57;;;4.57;;
70814;SDS011;58428;49.478;10.986;2023-02-21T08:15:06;11.18;;;4.40;;
70814;SDS011;58428;49.478;10.986;2023-02-21T08:17:32;11.27;;;5.05;;
70814;SDS011;58428;49.478;10.986;2023-02-21T08:19:57;7.85;;;4.20;;
70814;SDS011;58428;49.478;10.986;2023-02-21T08:22:25;8.20;;;4.30;;
70814;SDS011;58428;49.478;10.986;2023-02-21T08:24:51;10.75;;;4.22;;
70814;SDS011;58428;49.478;10.986;2023-02-21T08:27:17;10.55;;;4.50;;
70814;SDS011;58428;49.478;10.986;2023-02-21T08:29:42;9.23;;;4.43;;
70814;SDS011;58428;49.478;10.986;2023-02-21T08:32:08;9.35;;;4.00;;
70814;SDS011;58428;49.478;10.986;2023-02-21T08:34:34;12.93;;;4.22;;
70814;SDS011;58428;49.478;10.986;2023-02-21T08:36:59;9.48;;;4.25;;
70814;SDS011;58428;49.478;10.986;2023-02-21T08:39:25;11.30;;;4.57;;
70814;SDS011;58428;49.478;10.986;2023-02-21T08:41:54;11.70;;;4.07;;
70814;SDS011;58428;49.478;10.986;2023-02-21T08:44:20;13.00;;;4.22;;
70814;SDS011;58428;49.478;10.986;2023-02-21T08:46:46;8.70;;;4.07;;
70814;SDS011;58428;49.478;10.986;2023-02-21T08:49:12;8.95;;;4.68;;
70814;SDS011;58428;49.478;10.986;2023-02-21T08:51:38;11.38;;;4.38;;
70814;SDS011;58428;49.478;10.986;2023-02-21T08:54:04;7.28;;;3.75;;
70814;SDS011;58428;49.478;10.986;2023-02-21T08:58:56;9.32;;;3.92;;
70814;SDS011;58428;49.478;10.986;2023-02-21T09:01:22;9.23;;;4.00;;
70814;SDS011;58428;49.478;10.986;2023-02-21T09:03:49;8.27;;;4.10;;
70814;SDS011;58428;49.478;10.986;2023-02-21T09:06:15;9.52;;;4.30;;
70814;SDS011;58428;49.478;10.986;2023-02-21T09:08:41;9.77;;;4.35;;
70814;SDS011;58428;49.478;10.986;2023-02-21T09:11:08;8.07;;;4.55;;
70814;SDS011;58428;49.478;10.986;2023-02-21T09:13:34;10.30;;;4.22;;
70814;SDS011;58428;49.478;10.986;2023-02-21T09:16:00;8.73;;;3.90;;
70814;SDS011;58428;49.478;10.986;2023-02-21T09:18:27;8.60;;;3.90;;
70814;SDS011;58428;49.478;10.986;2023-02-21T09:20:53;9.65;;;4.07;;
70814;SDS011;58428;49.478;10.986;2023-02-21T09:23:23;9.57;;;4.07;;
70814;SDS011;58428;49.478;10.986;2023-02-21T09:25:50;9.43;;;4.15;;
70814;SDS011;58428;49.478;10.986;2023-02-21T09:28:16;8.10;;;4.13;;
70814;SDS011;58428;49.478;10.986;2023-02-21T09:30:42;9.30;;;4.25;;
70814;SDS011;58428;49.478;10.986;2023-02-21T09:33:14;8.48;;;3.22;;
70814;SDS011;58428;49.478;10.986;2023-02-21T09:35:40;8.55;;;3.88;;
70814;SDS011;58428;49.478;10.986;2023-02-21T09:38:06;8.63;;;3.78;;
70814;SDS011;58428;49.478;10.986;2023-02-21T09:43:05;9.50;;;4.03;;
70814;SDS011;58428;49.478;10.986;2023-02-21T09:45:36;8.68;;;3.58;;
70814;SDS011;58428;49.478;10.986;2023-02-21T09:48:05;7.95;;;3.60;;
70814;SDS011;58428;49.478;10.986;2023-02-21T09:50:41;7.00;;;3.67;;
70814;SDS011;58428;49.478;10.986;2023-02-21T09:53:11;7.50;;;3.50;;
70814;SDS011;58428;49.478;10.986;2023-02-21T09:55:41;7.53;;;3.63;;
70814;SDS011;58428;49.478;10.986;2023-02-21T09:58:09;7.07;;;3.53;;
70814;SDS011;58428;49.478;10.986;2023-02-21T10:00:41;9.73;;;4.22;;
70814;SDS011;58428;49.478;10.986;2023-02-21T10:16:39;7.72;;;3.85;;
70814;SDS011;58428;49.478;10.986;2023-02-21T10:24:46;7.00;;;3.33;;
70814;SDS011;58428;49.478;10.986;2023-02-21T10:27:17;8.52;;;3.70;;
70814;SDS011;58428;49.478;10.986;2023-02-21T10:32:28;6.60;;;2.97;;
70814;SDS011;58428;49.478;10.986;2023-02-21T10:37:43;6.35;;;3.20;;
70814;SDS011;58428;49.478;10.986;2023-02-21T10:42:54;5.88;;;3.20;;
70814;SDS011;58428;49.478;10.986;2023-02-21T10:45:26;7.28;;;3.20;;
70814;SDS011;58428;49.478;10.986;2023-02-21T10:53:06;6.30;;;2.78;;
70814;SDS011;58428;49.478;10.986;2023-02-21T10:55:33;6.22;;;3.30;;
70814;SDS011;58428;49.478;10.986;2023-02-21T10:58:09;7.47;;;3.20;;
70814;SDS011;58428;49.478;10.986;2023-02-21T11:00:43;6.93;;;3.15;;
70814;SDS011;58428;49.478;10.986;2023-02-21T11:08:06;6.30;;;3.00;;
70814;SDS011;58428;49.478;10.986;2023-02-21T11:10:37;6.68;;;3.10;;
70814;SDS011;58428;49.478;10.986;2023-02-21T11:13:12;8.05;;;3.33;;
70814;SDS011;58428;49.478;10.986;2023-02-21T11:15:40;5.20;;;2.50;;
70814;SDS011;58428;49.478;10.986;2023-02-21T11:18:14;6.50;;;2.83;;
70814;SDS011;58428;49.478;10.986;2023-02-21T11:20:41;5.53;;;2.92;;
70814;SDS011;58428;49.478;10.986;2023-02-21T11:25:47;5.43;;;3.03;;
70814;SDS011;58428;49.478;10.986;2023-02-21T11:31:04;6.30;;;2.83;;
70814;SDS011;58428;49.478;10.986;2023-02-21T11:33:30;4.95;;;2.25;;
70814;SDS011;58428;49.478;10.986;2023-02-21T11:36:10;6.47;;;2.63;;
70814;SDS011;58428;49.478;10.986;2023-02-21T11:43:51;4.75;;;2.20;;
70814;SDS011;58428;49.478;10.986;2023-02-21T11:51:45;4.95;;;2.03;;
70814;SDS011;58428;49.478;10.986;2023-02-21T11:54:15;4.25;;;1.88;;
70814;SDS011;58428;49.478;10.986;2023-02-21T11:59:59;3.13;;;1.52;;
70814;SDS011;58428;49.478;10.986;2023-02-21T12:13:21;3.17;;;1.65;;
70814;SDS011;58428;49.478;10.986;2023-02-21T12:21:48;3.70;;;1.30;;
70814;SDS011;58428;49.478;10.986;2023-02-21T12:32:50;2.88;;;1.23;;
70814;SDS011;58428;49.478;10.986;2023-02-21T12:35:43;3.95;;;1.42;;
70814;SDS011;58428;49.478;10.986;2023-02-21T12:43:37;2.53;;;1.25;;
70814;SDS011;58428;49.478;10.986;2023-02-21T12:46:34;2.35;;;1.00;;
70814;SDS011;58428;49.478;10.986;2023-02-21T12:49:15;3.05;;;1.30;;
70814;SDS011;58428;49.478;10.986;2023-02-21T12:51:48;2.60;;;1.30;;
70814;SDS011;58428;49.478;10.986;2023-02-21T12:54:42;2.63;;;1.10;;
70814;SDS011;58428;49.478;10.986;2023-02-21T12:57:10;2.60;;;0.98;;
70814;SDS011;58428;49.478;10.986;2023-02-21T13:05:32;1.98;;;1.00;;
70814;SDS011;58428;49.478;10.986;2023-02-21T13:11:16;1.85;;;1.05;;
70814;SDS011;58428;49.478;10.986;2023-02-21T13:13:48;1.20;;;0.85;;
70814;SDS011;58428;49.478;10.986;2023-02-21T13:18:49;3.75;;;1.30;;
70814;SDS011;58428;49.478;10.986;2023-02-21T13:25:13;2.95;;;0.90;;
70814;SDS011;58428;49.478;10.986;2023-02-21T13:27:56;1.65;;;0.95;;
70814;SDS011;58428;49.478;10.986;2023-02-21T13:30:46;1.52;;;0.90;;
70814;SDS011;58428;49.478;10.986;2023-02-21T13:33:23;1.80;;;0.82;;
70814;SDS011;58428;49.478;10.986;2023-02-21T13:35:51;1.35;;;0.90;;
70814;SDS011;58428;49.478;10.986;2023-02-21T13:38:17;2.55;;;1.23;;
70814;SDS011;58428;49.478;10.986;2023-02-21T13:40:47;2.95;;;1.33;;
70814;SDS011;58428;49.478;10.986;2023-02-21T13:43:27;2.20;;;1.00;;
70814;SDS011;58428;49.478;10.986;2023-02-21T13:46:21;2.35;;;1.10;;
70814;SDS011;58428;49.478;10.986;2023-02-21T13:51:52;1.27;;;0.80;;
70814;SDS011;58428;49.478;10.986;2023-02-21T13:54:23;2.70;;;0.80;;
70814;SDS011;58428;49.478;10.986;2023-02-21T13:56:49;2.50;;;0.82;;
70814;SDS011;58428;49.478;10.986;2023-02-21T14:01:50;1.20;;;0.85;;
70814;SDS011;58428;49.478;10.986;2023-02-21T14:07:14;2.03;;;0.88;;
70814;SDS011;58428;49.478;10.986;2023-02-21T14:09:39;0.98;;;0.75;;
70814;SDS011;58428;49.478;10.986;2023-02-21T14:12:07;1.20;;;0.60;;
70814;SDS011;58428;49.478;10.986;2023-02-21T14:14:37;0.80;;;0.70;;
70814;SDS011;58428;49.478;10.986;2023-02-21T14:24:45;0.93;;;0.50;;
70814;SDS011;58428;49.478;10.986;2023-02-21T14:30:13;1.02;;;0.70;;
70814;SDS011;58428;49.478;10.986;2023-02-21T14:32:40;1.13;;;0.90;;
70814;SDS011;58428;49.478;10.986;2023-02-21T14:38:01;2.13;;;0.77;;
70814;SDS011;58428;49.478;10.986;2023-02-21T14:40:35;0.82;;;0.70;;
70814;SDS011;58428;49.478;10.986;2023-02-21T15:00:32;1.75;;;0.80;;
70814;SDS011;58428;49.478;10.986;2023-02-21T15:08:28;1.30;;;0.90;;
70814;SDS011;58428;49.478;10.986;2023-02-21T15:11:03;1.08;;;0.80;;
70814;SDS011;58428;49.478;10.986;2023-02-21T15:14:11;2.58;;;1.20;;
70814;SDS011;58428;49.478;10.986;2023-02-21T15:16:50;2.58;;;0.93;;
70814;SDS011;58428;49.478;10.986;2023-02-21T15:19:34;1.42;;;0.80;;
70814;SDS011;58428;49.478;10.986;2023-02-21T15:22:13;2.70;;;0.82;;
70814;SDS011;58428;49.478;10.986;2023-02-21T15:27:36;1.85;;;0.80;;
70814;SDS011;58428;49.478;10.986;2023-02-21T15:33:06;2.47;;;1.00;;
70814;SDS011;58428;49.478;10.986;2023-02-21T15:35:39;3.63;;;1.10;;
70814;SDS011;58428;49.478;10.986;2023-02-21T15:40:55;2.40;;;1.05;;
70814;SDS011;58428;49.478;10.986;2023-02-21T15:45:59;1.98;;;1.10;;
70814;SDS011;58428;49.478;10.986;2023-02-21T15:48:29;4.07;;;1.35;;
70814;SDS011;58428;49.478;10.986;2023-02-21T15:53:25;2.83;;;1.27;;
70814;SDS011;58428;49.478;10.986;2023-02-21T15:55:51;6.78;;;3.55;;
70814;SDS011;58428;49.478;10.986;2023-02-21T15:58:21;2.83;;;1.15;;
70814;SDS011;58428;49.478;10.986;2023-02-21T16:08:50;2.28;;;1.20;;
70814;SDS011;58428;49.478;10.986;2023-02-21T16:11:17;3.70;;;1.33;;
70814;SDS011;58428;49.478;10.986;2023-02-21T16:13:44;3.33;;;1.30;;
70814;SDS011;58428;49.478;10.986;2023-02-21T16:16:18;3.28;;;1.40;;
70814;SDS011;58428;49.478;10.986;2023-02-21T16:18:43;1.88;;;1.33;;
70814;SDS011;58428;49.478;10.986;2023-02-21T16:21:12;2.78;;;1.70;;
70814;SDS011;58428;49.478;10.986;2023-02-21T16:23:46;3.08;;;1.83;;
70814;SDS011;58428;49.478;10.986;2023-02-21T16:28:41;3.00;;;1.65;;
70814;SDS011;58428;49.478;10.986;2023-02-21T16:31:15;4.25;;;2.40;;
70814;SDS011;58428;49.478;10.986;2023-02-21T16:33:48;3.30;;;1.65;;
70814;SDS011;58428;49.478;10.986;2023-02-21T16:36:24;3.70;;;1.83;;
70814;SDS011;58428;49.478;10.986;2023-02-21T16:38:52;2.78;;;1.80;;
70814;SDS011;58428;49.478;10.986;2023-02-21T16:41:18;3.60;;;1.80;;
70814;SDS011;58428;49.478;10.986;2023-02-21T16:43:44;4.10;;;1.80;;
70814;SDS011;58428;49.478;10.986;2023-02-21T16:48:37;4.70;;;2.10;;
70814;SDS011;58428;49.478;10.986;2023-02-21T16:51:04;4.80;;;1.80;;
70814;SDS011;58428;49.478;10.986;2023-02-21T16:53:34;6.05;;;2.80;;
70814;SDS011;58428;49.478;10.986;2023-02-21T16:56:01;5.30;;;2.42;;
70814;SDS011;58428;49.478;10.986;2023-02-21T16:58:35;7.38;;;3.30;;
70814;SDS011;58428;49.478;10.986;2023-02-21T17:01:13;9.45;;;4.75;;
70814;SDS011;58428;49.478;10.986;2023-02-21T17:03:42;5.55;;;2.42;;
70814;SDS011;58428;49.478;10.986;2023-02-21T17:06:09;6.38;;;2.38;;
70814;SDS011;58428;49.478;10.986;2023-02-21T17:08:40;3.90;;;1.98;;
70814;SDS011;58428;49.478;10.986;2023-02-21T17:11:06;3.53;;;1.65;;
70814;SDS011;58428;49.478;10.986;2023-02-21T17:13:36;6.05;;;2.33;;
70814;SDS011;58428;49.478;10.986;2023-02-21T17:16:03;4.65;;;2.65;;
70814;SDS011;58428;49.478;10.986;2023-02-21T17:18:29;6.72;;;2.80;;
70814;SDS011;58428;49.478;10.986;2023-02-21T17:20:58;5.38;;;2.45;;
70814;SDS011;58428;49.478;10.986;2023-02-21T17:23:27;6.43;;;2.65;;
70814;SDS011;58428;49.478;10.986;2023-02-21T17:25:52;6.72;;;2.65;;
70814;SDS011;58428;49.478;10.986;2023-02-21T17:28:18;6.30;;;3.38;;
70814;SDS011;58428;49.478;10.986;2023-02-21T17:30:43;7.50;;;3.50;;
70814;SDS011;58428;49.478;10.986;2023-02-21T17:33:09;20.27;;;10.13;;
70814;SDS011;58428;49.478;10.986;2023-02-21T17:35:36;9.80;;;4.60;;
70814;SDS011;58428;49.478;10.986;2023-02-21T17:38:03;8.75;;;3.83;;
70814;SDS011;58428;49.478;10.986;2023-02-21T17:42:55;8.70;;;4.10;;
70814;SDS011;58428;49.478;10.986;2023-02-21T17:45:21;8.70;;;4.57;;
70814;SDS011;58428;49.478;10.986;2023-02-21T17:47:51;8.95;;;4.30;;
70814;SDS011;58428;49.478;10.986;2023-02-21T17:50:19;11.38;;;6.18;;
70814;SDS011;58428;49.478;10.986;2023-02-21T17:52:46;9.85;;;4.63;;
70814;SDS011;58428;49.478;10.986;2023-02-21T17:55:19;9.45;;;5.05;;
70814;SDS011;58428;49.478;10.986;2023-02-21T17:57:46;7.68;;;4.13;;
70814;SDS011;58428;49.478;10.986;2023-02-21T18:00:22;9.60;;;4.80;;
70814;SDS011;58428;49.478;10.986;2023-02-21T18:02:50;9.35;;;4.80;;
70814;SDS011;58428;49.478;10.986;2023-02-21T18:05:17;11.30;;;5.07;;
70814;SDS011;58428;49.478;10.986;2023-02-21T18:07:45;8.80;;;4.70;;
70814;SDS011;58428;49.478;10.986;2023-02-21T18:10:13;10.27;;;5.60;;
70814;SDS011;58428;49.478;10.986;2023-02-21T18:12:40;10.25;;;5.50;;
70814;SDS011;58428;49.478;10.986;2023-02-21T18:15:06;9.98;;;5.43;;
70814;SDS011;58428;49.478;10.986;2023-02-21T18:17:34;11.07;;;6.30;;
70814;SDS011;58428;49.478;10.986;2023-02-21T18:19:59;9.25;;;5.35;;
70814;SDS011;58428;49.478;10.986;2023-02-21T18:22:25;9.52;;;6.00;;
70814;SDS011;58428;49.478;10.986;2023-02-21T18:24:51;10.63;;;6.95;;
70814;SDS011;58428;49.478;10.986;2023-02-21T18:27:17;12.25;;;7.22;;
70814;SDS011;58428;49.478;10.986;2023-02-21T18:29:44;11.02;;;6.70;;